sensor_id;sensor_type;location;lat;lon;timestamp;P1;durP1;ratioP1;P2;durP2;ratioP2
15764;SDS011;7983;50.744;7.086;2022-09-16T00:00:43;2.25;;;0.80;;
15764;SDS011;7983;50.744;7.086;2022-09-16T00:03:09;1.50;;;0.75;;
15764;SDS011;7983;50.744;7.086;2022-09-16T00:05:42;1.85;;;0.77;;
15764;SDS011;7983;50.744;7.086;2022-09-16T00:08:08;2.13;;;0.80;;
15764;SDS011;7983;50.744;7.086;2022-09-16T00:10:37;1.65;;;0.77;;
15764;SDS011;7983;50.744;7.086;2022-09-16T00:13:03;2.30;;;1.00;;
15764;SDS011;7983;50.744;7.086;2022-09-16T00:15:29;4.40;;;1.00;;
15764;SDS011;7983;50.744;7.086;2022-09-16T00:17:54;1.83;;;0.90;;
15764;SDS011;7983;50.744;7.086;2022-09-16T00:20:20;4.13;;;0.98;;
15764;SDS011;7983;50.744;7.086;2022-09-16T00:22:48;2.08;;;0.80;;
15764;SDS011;7983;50.744;7.086;2022-09-16T00:25:13;1.67;;;0.70;;
15764;SDS011;7983;50.744;7.086;2022-09-16T00:27:39;1.70;;;0.90;;
15764;SDS011;7983;50.744;7.086;2022-09-16T00:30:07;1.63;;;0.80;;
15764;SDS011;7983;50.744;7.086;2022-09-16T00:32:33;2.28;;;1.00;;
15764;SDS011;7983;50.744;7.086;2022-09-16T00:34:59;3.83;;;0.80;;
15764;SDS011;7983;50.744;7.086;2022-09-16T00:37:24;0.98;;;0.70;;
15764;SDS011;7983;50.744;7.086;2022-09-16T00:39:52;2.92;;;0.93;;
15764;SDS011;7983;50.744;7.086;2022-09-16T00:42:18;2.88;;;0.80;;
15764;SDS011;7983;50.744;7.086;2022-09-16T00:45:03;1.42;;;0.77;;
15764;SDS011;7983;50.744;7.086;2022-09-16T00:47:45;2.85;;;0.75;;
15764;SDS011;7983;50.744;7.086;2022-09-16T00:50:37;2.85;;;0.80;;
15764;SDS011;7983;50.744;7.086;2022-09-16T00:53:08;1.60;;;0.90;;
15764;SDS011;7983;50.744;7.086;2022-09-16T00:55:41;1.67;;;0.90;;
15764;SDS011;7983;50.744;7.086;2022-09-16T00:58:13;2.65;;;1.05;;
15764;SDS011;7983;50.744;7.086;2022-09-16T01:00:47;1.20;;;0.80;;
15764;SDS011;7983;50.744;7.086;2022-09-16T01:03:16;2.72;;;1.20;;
15764;SDS011;7983;50.744;7.086;2022-09-16T01:05:45;1.30;;;0.75;;
15764;SDS011;7983;50.744;7.086;2022-09-16T01:08:11;2.05;;;0.80;;
15764;SDS011;7983;50.744;7.086;2022-09-16T01:10:39;2.05;;;0.90;;
15764;SDS011;7983;50.744;7.086;2022-09-16T01:13:09;2.67;;;0.80;;
15764;SDS011;7983;50.744;7.086;2022-09-16T01:18:38;1.77;;;0.73;;
15764;SDS011;7983;50.744;7.086;2022-09-16T01:32:16;2.30;;;0.73;;
15764;SDS011;7983;50.744;7.086;2022-09-16T01:40:45;3.10;;;0.88;;
15764;SDS011;7983;50.744;7.086;2022-09-16T01:45:59;1.80;;;0.70;;
15764;SDS011;7983;50.744;7.086;2022-09-16T01:48:36;2.42;;;0.75;;
15764;SDS011;7983;50.744;7.086;2022-09-16T01:59:08;2.35;;;0.80;;
15764;SDS011;7983;50.744;7.086;2022-09-16T02:01:41;2.40;;;0.90;;
15764;SDS011;7983;50.744;7.086;2022-09-16T02:04:16;3.22;;;1.02;;
15764;SDS011;7983;50.744;7.086;2022-09-16T02:06:47;2.40;;;0.80;;
15764;SDS011;7983;50.744;7.086;2022-09-16T02:09:17;2.15;;;0.88;;
15764;SDS011;7983;50.744;7.086;2022-09-16T02:11:48;2.30;;;0.90;;
15764;SDS011;7983;50.744;7.086;2022-09-16T02:14:20;1.65;;;0.82;;
15764;SDS011;7983;50.744;7.086;2022-09-16T02:19:19;2.63;;;0.90;;
15764;SDS011;7983;50.744;7.086;2022-09-16T02:21:48;3.53;;;0.85;;
15764;SDS011;7983;50.744;7.086;2022-09-16T02:24:17;3.47;;;0.90;;
15764;SDS011;7983;50.744;7.086;2022-09-16T02:26:46;3.03;;;1.00;;
15764;SDS011;7983;50.744;7.086;2022-09-16T02:29:19;2.22;;;1.20;;
15764;SDS011;7983;50.744;7.086;2022-09-16T02:31:48;2.53;;;0.85;;
15764;SDS011;7983;50.744;7.086;2022-09-16T02:34:19;1.35;;;0.80;;
15764;SDS011;7983;50.744;7.086;2022-09-16T02:37:20;3.05;;;1.00;;
15764;SDS011;7983;50.744;7.086;2022-09-16T02:39:55;2.67;;;1.00;;
15764;SDS011;7983;50.744;7.086;2022-09-16T02:42:26;1.48;;;0.90;;
15764;SDS011;7983;50.744;7.086;2022-09-16T02:44:52;1.83;;;1.10;;
15764;SDS011;7983;50.744;7.086;2022-09-16T02:47:31;2.30;;;1.00;;
15764;SDS011;7983;50.744;7.086;2022-09-16T02:51:03;2.03;;;1.10;;
15764;SDS011;7983;50.744;7.086;2022-09-16T02:53:17;4.90;;;1.20;;
15764;SDS011;7983;50.744;7.086;2022-09-16T02:55:55;2.78;;;1.17;;
15764;SDS011;7983;50.744;7.086;2022-09-16T02:58:26;1.52;;;1.00;;
15764;SDS011;7983;50.744;7.086;2022-09-16T03:00:53;4.97;;;1.30;;
15764;SDS011;7983;50.744;7.086;2022-09-16T03:03:22;5.03;;;1.40;;
15764;SDS011;7983;50.744;7.086;2022-09-16T03:08:31;2.88;;;1.35;;
15764;SDS011;7983;50.744;7.086;2022-09-16T03:10:58;3.08;;;1.13;;
15764;SDS011;7983;50.744;7.086;2022-09-16T03:16:35;2.00;;;1.27;;
15764;SDS011;7983;50.744;7.086;2022-09-16T03:19:16;2.45;;;1.48;;
15764;SDS011;7983;50.744;7.086;2022-09-16T03:22:49;5.40;;;1.60;;
15764;SDS011;7983;50.744;7.086;2022-09-16T03:25:04;2.65;;;1.20;;
15764;SDS011;7983;50.744;7.086;2022-09-16T03:27:35;2.50;;;1.30;;
15764;SDS011;7983;50.744;7.086;2022-09-16T03:30:14;3.95;;;1.25;;
15764;SDS011;7983;50.744;7.086;2022-09-16T03:32:48;2.42;;;1.45;;
15764;SDS011;7983;50.744;7.086;2022-09-16T03:35:29;3.60;;;1.52;;
15764;SDS011;7983;50.744;7.086;2022-09-16T03:38:00;3.33;;;1.40;;
15764;SDS011;7983;50.744;7.086;2022-09-16T03:40:27;2.40;;;1.15;;
15764;SDS011;7983;50.744;7.086;2022-09-16T03:42:55;2.15;;;1.35;;
15764;SDS011;7983;50.744;7.086;2022-09-16T03:45:24;3.58;;;1.75;;
15764;SDS011;7983;50.744;7.086;2022-09-16T03:47:50;2.92;;;1.00;;
15764;SDS011;7983;50.744;7.086;2022-09-16T03:50:20;2.85;;;1.25;;
15764;SDS011;7983;50.744;7.086;2022-09-16T03:52:46;4.90;;;1.17;;
15764;SDS011;7983;50.744;7.086;2022-09-16T03:55:11;4.88;;;1.35;;
15764;SDS011;7983;50.744;7.086;2022-09-16T03:57:37;2.75;;;1.10;;
15764;SDS011;7983;50.744;7.086;2022-09-16T04:00:03;1.75;;;1.38;;
15764;SDS011;7983;50.744;7.086;2022-09-16T04:02:31;3.38;;;1.27;;
15764;SDS011;7983;50.744;7.086;2022-09-16T04:04:59;2.38;;;1.20;;
15764;SDS011;7983;50.744;7.086;2022-09-16T04:07:25;3.42;;;1.40;;
15764;SDS011;7983;50.744;7.086;2022-09-16T04:09:51;5.30;;;1.40;;
15764;SDS011;7983;50.744;7.086;2022-09-16T04:12:17;4.20;;;1.90;;
15764;SDS011;7983;50.744;7.086;2022-09-16T04:14:42;3.85;;;1.40;;
15764;SDS011;7983;50.744;7.086;2022-09-16T04:17:10;4.82;;;1.45;;
15764;SDS011;7983;50.744;7.086;2022-09-16T04:19:36;4.55;;;1.58;;
15764;SDS011;7983;50.744;7.086;2022-09-16T04:22:02;5.55;;;1.38;;
15764;SDS011;7983;50.744;7.086;2022-09-16T04:24:29;4.13;;;1.63;;
15764;SDS011;7983;50.744;7.086;2022-09-16T04:26:56;2.00;;;1.27;;
15764;SDS011;7983;50.744;7.086;2022-09-16T04:29:25;6.97;;;1.52;;
15764;SDS011;7983;50.744;7.086;2022-09-16T04:31:50;4.45;;;1.40;;
15764;SDS011;7983;50.744;7.086;2022-09-16T04:34:16;4.20;;;1.40;;
15764;SDS011;7983;50.744;7.086;2022-09-16T04:36:42;4.68;;;1.50;;
15764;SDS011;7983;50.744;7.086;2022-09-16T04:39:08;3.15;;;1.38;;
15764;SDS011;7983;50.744;7.086;2022-09-16T04:41:33;2.45;;;1.20;;
15764;SDS011;7983;50.744;7.086;2022-09-16T04:43:59;6.07;;;1.60;;
15764;SDS011;7983;50.744;7.086;2022-09-16T04:46:32;3.70;;;1.60;;
15764;SDS011;7983;50.744;7.086;2022-09-16T04:48:58;3.17;;;1.38;;
15764;SDS011;7983;50.744;7.086;2022-09-16T04:51:27;3.80;;;1.48;;
15764;SDS011;7983;50.744;7.086;2022-09-16T04:53:54;2.95;;;1.70;;
15764;SDS011;7983;50.744;7.086;2022-09-16T04:56:22;4.00;;;1.27;;
15764;SDS011;7983;50.744;7.086;2022-09-16T04:58:50;6.53;;;1.70;;
15764;SDS011;7983;50.744;7.086;2022-09-16T05:01:21;2.45;;;1.30;;
15764;SDS011;7983;50.744;7.086;2022-09-16T05:03:51;4.35;;;1.40;;
15764;SDS011;7983;50.744;7.086;2022-09-16T05:06:24;5.45;;;1.70;;
15764;SDS011;7983;50.744;7.086;2022-09-16T05:08:52;5.18;;;1.90;;
15764;SDS011;7983;50.744;7.086;2022-09-16T05:11:23;3.50;;;1.50;;
15764;SDS011;7983;50.744;7.086;2022-09-16T05:13:50;2.38;;;1.23;;
15764;SDS011;7983;50.744;7.086;2022-09-16T05:16:17;3.42;;;1.42;;
15764;SDS011;7983;50.744;7.086;2022-09-16T05:18:52;2.47;;;1.60;;
15764;SDS011;7983;50.744;7.086;2022-09-16T05:21:20;5.07;;;1.63;;
15764;SDS011;7983;50.744;7.086;2022-09-16T05:23:47;4.53;;;1.27;;
15764;SDS011;7983;50.744;7.086;2022-09-16T05:26:18;2.90;;;1.20;;
15764;SDS011;7983;50.744;7.086;2022-09-16T05:28:48;2.08;;;1.10;;
15764;SDS011;7983;50.744;7.086;2022-09-16T05:31:17;2.72;;;1.08;;
15764;SDS011;7983;50.744;7.086;2022-09-16T05:33:55;2.53;;;1.02;;
15764;SDS011;7983;50.744;7.086;2022-09-16T05:36:23;3.13;;;1.05;;
15764;SDS011;7983;50.744;7.086;2022-09-16T05:38:49;3.25;;;1.30;;
15764;SDS011;7983;50.744;7.086;2022-09-16T05:41:15;3.17;;;1.30;;
15764;SDS011;7983;50.744;7.086;2022-09-16T05:43:41;3.50;;;1.05;;
15764;SDS011;7983;50.744;7.086;2022-09-16T05:46:10;3.42;;;1.00;;
15764;SDS011;7983;50.744;7.086;2022-09-16T05:48:41;4.82;;;1.00;;
15764;SDS011;7983;50.744;7.086;2022-09-16T05:51:07;3.60;;;1.10;;
15764;SDS011;7983;50.744;7.086;2022-09-16T05:53:36;3.08;;;1.10;;
15764;SDS011;7983;50.744;7.086;2022-09-16T05:56:15;3.33;;;1.05;;
15764;SDS011;7983;50.744;7.086;2022-09-16T05:58:42;4.70;;;1.10;;
15764;SDS011;7983;50.744;7.086;2022-09-16T06:01:09;2.72;;;1.02;;
15764;SDS011;7983;50.744;7.086;2022-09-16T06:03:40;3.90;;;1.08;;
15764;SDS011;7983;50.744;7.086;2022-09-16T06:08:50;2.92;;;0.73;;
15764;SDS011;7983;50.744;7.086;2022-09-16T06:11:21;3.78;;;1.10;;
15764;SDS011;7983;50.744;7.086;2022-09-16T06:13:51;3.53;;;1.20;;
15764;SDS011;7983;50.744;7.086;2022-09-16T06:16:26;3.47;;;1.20;;
15764;SDS011;7983;50.744;7.086;2022-09-16T06:18:56;3.80;;;1.00;;
15764;SDS011;7983;50.744;7.086;2022-09-16T06:21:23;3.45;;;1.20;;
15764;SDS011;7983;50.744;7.086;2022-09-16T06:23:49;2.55;;;1.00;;
15764;SDS011;7983;50.744;7.086;2022-09-16T06:26:16;3.67;;;1.60;;
15764;SDS011;7983;50.744;7.086;2022-09-16T06:28:45;2.78;;;1.15;;
15764;SDS011;7983;50.744;7.086;2022-09-16T06:33:42;4.53;;;1.10;;
15764;SDS011;7983;50.744;7.086;2022-09-16T06:36:15;1.65;;;0.80;;
15764;SDS011;7983;50.744;7.086;2022-09-16T06:38:45;3.63;;;1.13;;
15764;SDS011;7983;50.744;7.086;2022-09-16T06:41:14;3.50;;;1.00;;
15764;SDS011;7983;50.744;7.086;2022-09-16T06:43:41;2.53;;;1.15;;
15764;SDS011;7983;50.744;7.086;2022-09-16T06:46:09;1.98;;;0.90;;
15764;SDS011;7983;50.744;7.086;2022-09-16T06:48:40;4.13;;;1.10;;
15764;SDS011;7983;50.744;7.086;2022-09-16T06:51:11;2.83;;;1.05;;
15764;SDS011;7983;50.744;7.086;2022-09-16T06:53:46;2.78;;;1.05;;
15764;SDS011;7983;50.744;7.086;2022-09-16T06:56:13;3.70;;;1.00;;
15764;SDS011;7983;50.744;7.086;2022-09-16T06:58:43;2.83;;;1.38;;
15764;SDS011;7983;50.744;7.086;2022-09-16T07:01:22;2.15;;;1.00;;
15764;SDS011;7983;50.744;7.086;2022-09-16T07:03:52;2.83;;;0.90;;
15764;SDS011;7983;50.744;7.086;2022-09-16T07:06:19;3.35;;;1.10;;
15764;SDS011;7983;50.744;7.086;2022-09-16T07:08:46;4.28;;;1.20;;
15764;SDS011;7983;50.744;7.086;2022-09-16T07:11:16;4.57;;;0.90;;
15764;SDS011;7983;50.744;7.086;2022-09-16T07:13:46;3.25;;;0.90;;
15764;SDS011;7983;50.744;7.086;2022-09-16T07:16:14;2.10;;;0.90;;
15764;SDS011;7983;50.744;7.086;2022-09-16T07:18:45;3.55;;;1.05;;
15764;SDS011;7983;50.744;7.086;2022-09-16T07:21:14;2.42;;;0.93;;
15764;SDS011;7983;50.744;7.086;2022-09-16T07:23:41;2.72;;;0.98;;
15764;SDS011;7983;50.744;7.086;2022-09-16T07:26:14;1.85;;;0.88;;
15764;SDS011;7983;50.744;7.086;2022-09-16T07:28:46;2.80;;;1.15;;
15764;SDS011;7983;50.744;7.086;2022-09-16T07:31:17;2.60;;;1.13;;
15764;SDS011;7983;50.744;7.086;2022-09-16T07:33:48;4.90;;;1.15;;
15764;SDS011;7983;50.744;7.086;2022-09-16T07:36:21;2.83;;;1.10;;
15764;SDS011;7983;50.744;7.086;2022-09-16T07:38:51;3.65;;;1.10;;
15764;SDS011;7983;50.744;7.086;2022-09-16T07:41:23;2.92;;;1.23;;
15764;SDS011;7983;50.744;7.086;2022-09-16T07:43:53;3.70;;;1.08;;
15764;SDS011;7983;50.744;7.086;2022-09-16T07:46:23;2.80;;;1.08;;
15764;SDS011;7983;50.744;7.086;2022-09-16T07:48:52;5.25;;;1.10;;
15764;SDS011;7983;50.744;7.086;2022-09-16T07:51:19;2.03;;;0.93;;
15764;SDS011;7983;50.744;7.086;2022-09-16T07:53:47;6.85;;;1.15;;
15764;SDS011;7983;50.744;7.086;2022-09-16T07:56:18;3.58;;;1.20;;
15764;SDS011;7983;50.744;7.086;2022-09-16T07:58:49;1.77;;;0.93;;
15764;SDS011;7983;50.744;7.086;2022-09-16T08:01:15;1.88;;;1.30;;
15764;SDS011;7983;50.744;7.086;2022-09-16T08:03:42;2.67;;;1.00;;
15764;SDS011;7983;50.744;7.086;2022-09-16T08:06:10;2.08;;;0.80;;
15764;SDS011;7983;50.744;7.086;2022-09-16T08:08:37;2.03;;;0.75;;
15764;SDS011;7983;50.744;7.086;2022-09-16T08:11:03;3.08;;;0.90;;
15764;SDS011;7983;50.744;7.086;2022-09-16T08:13:29;2.50;;;0.80;;
15764;SDS011;7983;50.744;7.086;2022-09-16T08:15:59;2.00;;;0.90;;
15764;SDS011;7983;50.744;7.086;2022-09-16T08:18:27;3.53;;;1.02;;
15764;SDS011;7983;50.744;7.086;2022-09-16T08:20:58;2.90;;;0.80;;
15764;SDS011;7983;50.744;7.086;2022-09-16T08:23:41;1.60;;;0.70;;
15764;SDS011;7983;50.744;7.086;2022-09-16T08:26:07;2.22;;;0.75;;
15764;SDS011;7983;50.744;7.086;2022-09-16T08:28:35;4.70;;;1.13;;
15764;SDS011;7983;50.744;7.086;2022-09-16T08:31:02;1.83;;;0.95;;
15764;SDS011;7983;50.744;7.086;2022-09-16T08:33:30;2.15;;;0.80;;
15764;SDS011;7983;50.744;7.086;2022-09-16T08:36:00;1.00;;;0.73;;
15764;SDS011;7983;50.744;7.086;2022-09-16T08:38:30;3.72;;;0.80;;
15764;SDS011;7983;50.744;7.086;2022-09-16T08:41:05;2.33;;;0.80;;
15764;SDS011;7983;50.744;7.086;2022-09-16T08:43:42;1.27;;;0.90;;
15764;SDS011;7983;50.744;7.086;2022-09-16T08:51:22;3.10;;;1.00;;
15764;SDS011;7983;50.744;7.086;2022-09-16T08:56:28;2.40;;;0.95;;
15764;SDS011;7983;50.744;7.086;2022-09-16T08:59:00;4.00;;;1.10;;
15764;SDS011;7983;50.744;7.086;2022-09-16T09:01:38;3.30;;;0.88;;
15764;SDS011;7983;50.744;7.086;2022-09-16T09:04:24;3.15;;;0.93;;
15764;SDS011;7983;50.744;7.086;2022-09-16T09:07:13;3.35;;;0.75;;
15764;SDS011;7983;50.744;7.086;2022-09-16T09:10:36;1.27;;;0.70;;
15764;SDS011;7983;50.744;7.086;2022-09-16T09:23:49;4.03;;;0.80;;
15764;SDS011;7983;50.744;7.086;2022-09-16T09:47:59;3.00;;;0.50;;
15764;SDS011;7983;50.744;7.086;2022-09-16T09:55:38;1.77;;;0.80;;
15764;SDS011;7983;50.744;7.086;2022-09-16T09:58:16;1.73;;;0.60;;
15764;SDS011;7983;50.744;7.086;2022-09-16T10:00:50;2.47;;;0.70;;
15764;SDS011;7983;50.744;7.086;2022-09-16T10:03:21;3.17;;;0.70;;
15764;SDS011;7983;50.744;7.086;2022-09-16T10:05:47;2.40;;;0.93;;
15764;SDS011;7983;50.744;7.086;2022-09-16T10:10:48;1.63;;;0.70;;
15764;SDS011;7983;50.744;7.086;2022-09-16T10:13:14;1.20;;;0.43;;
15764;SDS011;7983;50.744;7.086;2022-09-16T10:15:44;1.52;;;0.57;;
15764;SDS011;7983;50.744;7.086;2022-09-16T10:18:20;1.17;;;0.60;;
15764;SDS011;7983;50.744;7.086;2022-09-16T10:23:31;1.73;;;0.65;;
15764;SDS011;7983;50.744;7.086;2022-09-16T10:26:04;0.95;;;0.50;;
15764;SDS011;7983;50.744;7.086;2022-09-16T10:31:40;3.55;;;0.85;;
15764;SDS011;7983;50.744;7.086;2022-09-16T10:36:41;1.10;;;0.40;;
15764;SDS011;7983;50.744;7.086;2022-09-16T10:39:18;1.52;;;0.50;;
15764;SDS011;7983;50.744;7.086;2022-09-16T10:41:47;1.10;;;0.60;;
15764;SDS011;7983;50.744;7.086;2022-09-16T10:46:57;5.40;;;0.75;;
15764;SDS011;7983;50.744;7.086;2022-09-16T10:49:45;2.33;;;0.80;;
15764;SDS011;7983;50.744;7.086;2022-09-16T10:54:44;1.92;;;0.77;;
15764;SDS011;7983;50.744;7.086;2022-09-16T11:00:01;2.03;;;0.50;;
15764;SDS011;7983;50.744;7.086;2022-09-16T11:03:00;1.00;;;0.50;;
15764;SDS011;7983;50.744;7.086;2022-09-16T11:05:55;2.00;;;0.57;;
15764;SDS011;7983;50.744;7.086;2022-09-16T11:08:34;1.17;;;0.70;;
15764;SDS011;7983;50.744;7.086;2022-09-16T11:25:04;1.58;;;0.60;;
15764;SDS011;7983;50.744;7.086;2022-09-16T11:36:22;1.42;;;0.70;;
15764;SDS011;7983;50.744;7.086;2022-09-16T11:44:18;1.83;;;0.70;;
15764;SDS011;7983;50.744;7.086;2022-09-16T11:57:44;0.75;;;0.50;;
15764;SDS011;7983;50.744;7.086;2022-09-16T12:00:15;2.58;;;0.80;;
15764;SDS011;7983;50.744;7.086;2022-09-16T12:02:45;0.88;;;0.30;;
15764;SDS011;7983;50.744;7.086;2022-09-16T12:08:02;3.60;;;0.50;;
15764;SDS011;7983;50.744;7.086;2022-09-16T12:10:44;1.50;;;0.57;;
15764;SDS011;7983;50.744;7.086;2022-09-16T12:13:16;1.02;;;0.52;;
15764;SDS011;7983;50.744;7.086;2022-09-16T12:18:31;2.47;;;0.57;;
15764;SDS011;7983;50.744;7.086;2022-09-16T12:23:39;1.73;;;0.60;;
15764;SDS011;7983;50.744;7.086;2022-09-16T12:26:35;1.52;;;0.65;;
15764;SDS011;7983;50.744;7.086;2022-09-16T12:29:22;0.65;;;0.50;;
15764;SDS011;7983;50.744;7.086;2022-09-16T12:32:14;2.95;;;0.75;;
15764;SDS011;7983;50.744;7.086;2022-09-16T12:34:53;4.97;;;0.47;;
15764;SDS011;7983;50.744;7.086;2022-09-16T12:40:03;3.22;;;0.77;;
15764;SDS011;7983;50.744;7.086;2022-09-16T12:42:44;1.35;;;0.57;;
15764;SDS011;7983;50.744;7.086;2022-09-16T12:51:25;2.47;;;0.40;;
15764;SDS011;7983;50.744;7.086;2022-09-16T12:56:47;1.88;;;0.50;;
15764;SDS011;7983;50.744;7.086;2022-09-16T13:02:14;1.95;;;0.63;;
15764;SDS011;7983;50.744;7.086;2022-09-16T13:04:49;1.75;;;0.63;;
15764;SDS011;7983;50.744;7.086;2022-09-16T13:10:06;1.60;;;0.68;;
15764;SDS011;7983;50.744;7.086;2022-09-16T13:12:53;1.13;;;0.45;;
15764;SDS011;7983;50.744;7.086;2022-09-16T13:15:22;1.15;;;0.63;;
15764;SDS011;7983;50.744;7.086;2022-09-16T13:19:05;1.05;;;0.60;;
15764;SDS011;7983;50.744;7.086;2022-09-16T13:24:05;3.33;;;0.50;;
15764;SDS011;7983;50.744;7.086;2022-09-16T13:26:56;1.58;;;0.70;;
15764;SDS011;7983;50.744;7.086;2022-09-16T13:32:23;2.00;;;0.60;;
15764;SDS011;7983;50.744;7.086;2022-09-16T13:37:44;3.20;;;0.43;;
15764;SDS011;7983;50.744;7.086;2022-09-16T13:40:18;0.88;;;0.40;;
15764;SDS011;7983;50.744;7.086;2022-09-16T13:42:45;1.30;;;0.35;;
15764;SDS011;7983;50.744;7.086;2022-09-16T13:48:24;1.02;;;0.40;;
15764;SDS011;7983;50.744;7.086;2022-09-16T13:50:56;0.65;;;0.30;;
15764;SDS011;7983;50.744;7.086;2022-09-16T13:53:28;1.45;;;0.50;;
15764;SDS011;7983;50.744;7.086;2022-09-16T14:02:29;1.15;;;0.60;;
15764;SDS011;7983;50.744;7.086;2022-09-16T14:15:19;1.30;;;0.70;;
15764;SDS011;7983;50.744;7.086;2022-09-16T14:17:47;0.90;;;0.60;;
15764;SDS011;7983;50.744;7.086;2022-09-16T14:20:16;0.77;;;0.60;;
15764;SDS011;7983;50.744;7.086;2022-09-16T14:22:46;0.80;;;0.70;;
15764;SDS011;7983;50.744;7.086;2022-09-16T14:25:24;0.93;;;0.60;;
15764;SDS011;7983;50.744;7.086;2022-09-16T14:28:07;1.58;;;0.57;;
15764;SDS011;7983;50.744;7.086;2022-09-16T14:30:33;1.13;;;0.52;;
15764;SDS011;7983;50.744;7.086;2022-09-16T14:32:59;0.90;;;0.60;;
15764;SDS011;7983;50.744;7.086;2022-09-16T14:35:26;0.55;;;0.40;;
15764;SDS011;7983;50.744;7.086;2022-09-16T14:37:53;1.10;;;0.50;;
15764;SDS011;7983;50.744;7.086;2022-09-16T14:40:23;2.33;;;0.55;;
15764;SDS011;7983;50.744;7.086;2022-09-16T14:42:52;0.77;;;0.50;;
15764;SDS011;7983;50.744;7.086;2022-09-16T14:45:24;1.27;;;0.60;;
15764;SDS011;7983;50.744;7.086;2022-09-16T14:47:51;0.50;;;0.50;;
15764;SDS011;7983;50.744;7.086;2022-09-16T14:52:59;1.10;;;0.60;;
15764;SDS011;7983;50.744;7.086;2022-09-16T14:55:27;3.58;;;0.55;;
15764;SDS011;7983;50.744;7.086;2022-09-16T14:57:55;1.48;;;0.50;;
15764;SDS011;7983;50.744;7.086;2022-09-16T15:00:23;1.35;;;0.60;;
15764;SDS011;7983;50.744;7.086;2022-09-16T15:10:56;1.42;;;0.60;;
15764;SDS011;7983;50.744;7.086;2022-09-16T15:13:28;0.52;;;0.47;;
15764;SDS011;7983;50.744;7.086;2022-09-16T15:16:01;0.85;;;0.52;;
15764;SDS011;7983;50.744;7.086;2022-09-16T15:18:36;1.45;;;0.60;;
15764;SDS011;7983;50.744;7.086;2022-09-16T15:23:44;1.35;;;0.90;;
15764;SDS011;7983;50.744;7.086;2022-09-16T15:26:16;1.10;;;0.60;;
15764;SDS011;7983;50.744;7.086;2022-09-16T15:31:34;2.15;;;0.60;;
15764;SDS011;7983;50.744;7.086;2022-09-16T15:44:37;1.23;;;0.70;;
15764;SDS011;7983;50.744;7.086;2022-09-16T15:47:16;0.93;;;0.68;;
15764;SDS011;7983;50.744;7.086;2022-09-16T15:49:45;1.35;;;0.77;;
15764;SDS011;7983;50.744;7.086;2022-09-16T15:52:14;1.05;;;0.40;;
15764;SDS011;7983;50.744;7.086;2022-09-16T15:57:10;1.63;;;0.70;;
15764;SDS011;7983;50.744;7.086;2022-09-16T16:00:01;1.67;;;0.60;;
15764;SDS011;7983;50.744;7.086;2022-09-16T16:02:40;1.02;;;0.57;;
15764;SDS011;7983;50.744;7.086;2022-09-16T16:05:07;1.00;;;0.60;;
15764;SDS011;7983;50.744;7.086;2022-09-16T16:10:23;0.98;;;0.55;;
15764;SDS011;7983;50.744;7.086;2022-09-16T16:12:51;0.73;;;0.40;;
15764;SDS011;7983;50.744;7.086;2022-09-16T16:15:22;1.05;;;0.50;;
15764;SDS011;7983;50.744;7.086;2022-09-16T16:17:50;2.17;;;0.70;;
15764;SDS011;7983;50.744;7.086;2022-09-16T16:20:21;1.23;;;0.75;;
15764;SDS011;7983;50.744;7.086;2022-09-16T16:22:49;2.08;;;0.73;;
15764;SDS011;7983;50.744;7.086;2022-09-16T16:25:15;1.40;;;0.60;;
15764;SDS011;7983;50.744;7.086;2022-09-16T16:27:41;1.65;;;0.80;;
15764;SDS011;7983;50.744;7.086;2022-09-16T16:30:09;1.55;;;0.52;;
15764;SDS011;7983;50.744;7.086;2022-09-16T16:32:35;1.92;;;0.60;;
15764;SDS011;7983;50.744;7.086;2022-09-16T16:35:04;0.68;;;0.57;;
15764;SDS011;7983;50.744;7.086;2022-09-16T16:37:37;1.20;;;0.60;;
15764;SDS011;7983;50.744;7.086;2022-09-16T16:40:06;1.08;;;0.60;;
15764;SDS011;7983;50.744;7.086;2022-09-16T16:42:32;1.40;;;0.55;;
15764;SDS011;7983;50.744;7.086;2022-09-16T16:44:58;0.75;;;0.50;;
15764;SDS011;7983;50.744;7.086;2022-09-16T16:47:24;1.45;;;0.70;;
15764;SDS011;7983;50.744;7.086;2022-09-16T16:49:54;2.70;;;0.90;;
15764;SDS011;7983;50.744;7.086;2022-09-16T16:52:20;1.25;;;0.70;;
15764;SDS011;7983;50.744;7.086;2022-09-16T16:54:46;1.60;;;0.70;;
15764;SDS011;7983;50.744;7.086;2022-09-16T16:57:14;1.80;;;0.70;;
15764;SDS011;7983;50.744;7.086;2022-09-16T16:59:41;1.13;;;0.50;;
15764;SDS011;7983;50.744;7.086;2022-09-16T17:02:10;1.75;;;0.45;;
15764;SDS011;7983;50.744;7.086;2022-09-16T17:04:36;1.35;;;0.50;;
15764;SDS011;7983;50.744;7.086;2022-09-16T17:07:01;0.73;;;0.50;;
15764;SDS011;7983;50.744;7.086;2022-09-16T17:09:27;0.88;;;0.70;;
15764;SDS011;7983;50.744;7.086;2022-09-16T17:11:56;1.95;;;0.77;;
15764;SDS011;7983;50.744;7.086;2022-09-16T17:14:24;0.68;;;0.55;;
15764;SDS011;7983;50.744;7.086;2022-09-16T17:16:53;1.08;;;0.68;;
15764;SDS011;7983;50.744;7.086;2022-09-16T17:19:19;1.92;;;0.90;;
15764;SDS011;7983;50.744;7.086;2022-09-16T17:21:46;0.63;;;0.40;;
15764;SDS011;7983;50.744;7.086;2022-09-16T17:24:14;1.15;;;0.60;;
15764;SDS011;7983;50.744;7.086;2022-09-16T17:26:40;1.13;;;0.60;;
15764;SDS011;7983;50.744;7.086;2022-09-16T17:29:06;0.57;;;0.47;;
15764;SDS011;7983;50.744;7.086;2022-09-16T17:31:34;1.60;;;0.68;;
15764;SDS011;7983;50.744;7.086;2022-09-16T17:34:04;0.60;;;0.60;;
15764;SDS011;7983;50.744;7.086;2022-09-16T17:36:35;1.98;;;0.68;;
15764;SDS011;7983;50.744;7.086;2022-09-16T17:39:09;0.95;;;0.52;;
15764;SDS011;7983;50.744;7.086;2022-09-16T17:41:43;1.42;;;0.50;;
15764;SDS011;7983;50.744;7.086;2022-09-16T17:44:10;1.00;;;0.60;;
15764;SDS011;7983;50.744;7.086;2022-09-16T17:46:40;2.15;;;0.70;;
15764;SDS011;7983;50.744;7.086;2022-09-16T17:49:08;1.35;;;0.60;;
15764;SDS011;7983;50.744;7.086;2022-09-16T17:51:40;0.90;;;0.57;;
15764;SDS011;7983;50.744;7.086;2022-09-16T17:54:08;1.13;;;0.65;;
15764;SDS011;7983;50.744;7.086;2022-09-16T17:56:34;1.30;;;0.55;;
15764;SDS011;7983;50.744;7.086;2022-09-16T17:59:00;1.02;;;0.70;;
15764;SDS011;7983;50.744;7.086;2022-09-16T18:01:26;0.70;;;0.50;;
15764;SDS011;7983;50.744;7.086;2022-09-16T18:03:54;2.85;;;0.77;;
15764;SDS011;7983;50.744;7.086;2022-09-16T18:06:30;1.95;;;0.65;;
15764;SDS011;7983;50.744;7.086;2022-09-16T18:09:03;1.02;;;0.60;;
15764;SDS011;7983;50.744;7.086;2022-09-16T18:11:32;1.10;;;0.80;;
15764;SDS011;7983;50.744;7.086;2022-09-16T18:13:59;1.23;;;0.73;;
15764;SDS011;7983;50.744;7.086;2022-09-16T18:16:26;1.58;;;1.02;;
15764;SDS011;7983;50.744;7.086;2022-09-16T18:18:55;1.48;;;0.80;;
15764;SDS011;7983;50.744;7.086;2022-09-16T18:21:23;1.80;;;0.63;;
15764;SDS011;7983;50.744;7.086;2022-09-16T18:23:54;1.13;;;0.52;;
15764;SDS011;7983;50.744;7.086;2022-09-16T18:26:27;1.67;;;0.70;;
15764;SDS011;7983;50.744;7.086;2022-09-16T18:28:53;1.75;;;0.77;;
15764;SDS011;7983;50.744;7.086;2022-09-16T18:31:21;2.13;;;0.70;;
15764;SDS011;7983;50.744;7.086;2022-09-16T18:33:50;2.10;;;0.80;;
15764;SDS011;7983;50.744;7.086;2022-09-16T18:36:17;3.10;;;0.75;;
15764;SDS011;7983;50.744;7.086;2022-09-16T18:38:48;4.95;;;0.70;;
15764;SDS011;7983;50.744;7.086;2022-09-16T18:41:15;1.58;;;0.68;;
15764;SDS011;7983;50.744;7.086;2022-09-16T18:43:51;1.95;;;0.70;;
15764;SDS011;7983;50.744;7.086;2022-09-16T18:46:22;2.50;;;0.90;;
15764;SDS011;7983;50.744;7.086;2022-09-16T18:48:52;1.45;;;0.60;;
15764;SDS011;7983;50.744;7.086;2022-09-16T18:51:25;0.85;;;0.80;;
15764;SDS011;7983;50.744;7.086;2022-09-16T18:53:59;1.85;;;0.80;;
15764;SDS011;7983;50.744;7.086;2022-09-16T18:56:27;1.85;;;0.70;;
15764;SDS011;7983;50.744;7.086;2022-09-16T18:59:03;1.45;;;0.70;;
15764;SDS011;7983;50.744;7.086;2022-09-16T19:01:35;1.20;;;0.70;;
15764;SDS011;7983;50.744;7.086;2022-09-16T19:04:04;0.73;;;0.50;;
15764;SDS011;7983;50.744;7.086;2022-09-16T19:06:32;1.05;;;0.60;;
15764;SDS011;7983;50.744;7.086;2022-09-16T19:09:00;1.52;;;0.60;;
15764;SDS011;7983;50.744;7.086;2022-09-16T19:11:30;1.48;;;0.60;;
15764;SDS011;7983;50.744;7.086;2022-09-16T19:13:57;1.92;;;0.82;;
15764;SDS011;7983;50.744;7.086;2022-09-16T19:16:25;1.40;;;0.70;;